Terminal Aerodrome Forecast
Issued by NWS Sterling, VA

Current Version | Previous Version | Graphics & Text | Print | Product List | Glossary Off
Versions: 1 2 3 4 5 6 7 8 9 10 11 12 13 14 15 16 17 18

000
FTUS41 KLWX 300539
TAFMRB
TAF
KMRB 300539Z 3006/3106 00000KT P6SM SCT090
     FM300800 00000KT 5SM BR BKN090
     FM301200 00000KT P6SM BKN050
     FM301400 18006KT 5SM SHRA VCTS OVC025CB
     FM302100 15005KT 5SM SHRA VCTS OVC035CB
     FM310000 VRB03KT 6SM -SHRA VCTS BKN040CB=

USA.gov is the U.S. government's official web portal to all federal, state and local government web resources and services.